Time;durP1;ratioP1;P1;durP2;ratioP2;P2;SDS_P1;SDS_P2;PMS_P1;PMS_P2;Temp;Humidity;BMP_temperature;BMP_pressure;BME280_temperature;BME280_humidity;BME280_pressure;Samples;Min_cycle;Max_cycle;Signal;HPM_P1;HPM_P2
2022/06/27 00:00:20;;;;;;;7.28;4.78;;;17.70;99.90;;;;;;5016192;28;20042;-69
2022/06/27 00:02:46;;;;;;;9.50;5.00;;;17.70;99.90;;;;;;4998818;28;20504;-69
2022/06/27 00:05:12;;;;;;;8.00;4.90;;;17.70;99.90;;;;;;5015753;28;20041;-68
2022/06/27 00:07:38;;;;;;;11.43;5.05;;;17.80;99.90;;;;;;4999210;28;20064;-69
2022/06/27 00:10:05;;;;;;;8.38;5.18;;;17.70;99.90;;;;;;4998494;28;20069;-69
2022/06/27 00:12:30;;;;;;;7.80;5.15;;;17.70;99.90;;;;;;5015500;28;20033;-69
2022/06/27 00:14:56;;;;;;;8.70;4.95;;;17.70;99.90;;;;;;5014985;28;20077;-69
2022/06/27 00:17:22;;;;;;;7.93;5.28;;;17.70;99.90;;;;;;5015664;28;20042;-69
2022/06/27 00:19:47;;;;;;;8.82;5.40;;;17.60;99.90;;;;;;4998080;28;20057;-69
2022/06/27 00:22:13;;;;;;;6.38;4.72;;;17.60;99.90;;;;;;5015839;28;20397;-69
2022/06/27 00:24:39;;;;;;;7.47;5.18;;;17.60;99.90;;;;;;4998361;28;20061;-69
2022/06/27 00:27:04;;;;;;;8.52;4.78;;;17.60;99.90;;;;;;4997907;28;20076;-68
2022/06/27 00:29:30;;;;;;;7.28;5.00;;;17.60;99.90;;;;;;4998078;28;20166;-68
2022/06/27 00:31:56;;;;;;;6.07;4.20;;;17.60;99.90;;;;;;4998038;28;20049;-69
2022/06/27 00:34:21;;;;;;;9.27;4.57;;;17.60;99.90;;;;;;5015486;28;20042;-69
2022/06/27 00:36:47;;;;;;;7.63;5.15;;;17.50;99.90;;;;;;5015466;28;20044;-69
2022/06/27 00:39:12;;;;;;;8.35;5.07;;;17.50;99.90;;;;;;5015157;28;20053;-68
2022/06/27 00:41:38;;;;;;;7.07;5.00;;;17.50;99.90;;;;;;5015745;28;20049;-69
2022/06/27 00:44:04;;;;;;;9.27;5.40;;;17.50;99.90;;;;;;5014061;28;20462;-69
2022/06/27 00:46:30;;;;;;;8.32;5.00;;;17.40;99.90;;;;;;4997761;28;20451;-69
2022/06/27 00:48:56;;;;;;;9.15;6.22;;;17.50;99.90;;;;;;4997798;28;20057;-69
2022/06/27 00:51:26;;;;;;;8.25;5.72;;;17.40;99.90;;;;;;4997752;28;20111;-70
2022/06/27 00:53:53;;;;;;;7.68;5.30;;;17.50;99.90;;;;;;4998113;28;20046;-69
2022/06/27 00:56:19;;;;;;;7.85;5.68;;;17.40;99.90;;;;;;5015225;28;20046;-69
2022/06/27 00:58:44;;;;;;;13.45;6.80;;;17.40;99.90;;;;;;4997601;28;20057;-68
2022/06/27 01:01:10;;;;;;;8.00;5.53;;;17.50;99.90;;;;;;5015329;28;20095;-69
2022/06/27 01:03:36;;;;;;;9.25;5.78;;;17.40;99.90;;;;;;4997438;28;20348;-70
2022/06/27 01:06:03;;;;;;;8.85;6.05;;;17.40;99.90;;;;;;4998196;28;20057;-68
2022/06/27 01:08:29;;;;;;;10.00;6.05;;;17.40;99.90;;;;;;4997985;28;20082;-69
2022/06/27 01:10:55;;;;;;;8.80;6.15;;;17.40;99.90;;;;;;4998017;28;20046;-69
2022/06/27 01:13:21;;;;;;;12.77;6.47;;;17.40;99.90;;;;;;4997237;28;20094;-69
2022/06/27 01:15:47;;;;;;;11.63;6.40;;;17.40;99.90;;;;;;5015312;28;20089;-69
2022/06/27 01:18:13;;;;;;;10.27;5.80;;;17.40;99.90;;;;;;4997576;28;20088;-68
2022/06/27 01:20:45;;;;;;;10.63;6.30;;;17.40;99.90;;;;;;5014544;28;20474;-69
2022/06/27 01:23:12;;;;;;;9.35;6.00;;;17.40;99.90;;;;;;5014745;28;20056;-68
2022/06/27 01:25:38;;;;;;;7.93;5.38;;;17.40;99.90;;;;;;5014875;28;20056;-68
2022/06/27 01:28:06;;;;;;;9.60;5.88;;;17.40;99.90;;;;;;5014377;28;20038;-68
2022/06/27 01:30:31;;;;;;;8.73;5.57;;;17.40;99.90;;;;;;5015168;28;20079;-69
2022/06/27 01:32:57;;;;;;;9.00;5.78;;;17.40;99.90;;;;;;5014604;28;20049;-68
2022/06/27 01:35:23;;;;;;;11.40;6.10;;;17.40;99.90;;;;;;4997242;28;20397;-68
2022/06/27 01:37:49;;;;;;;9.05;6.07;;;17.40;99.90;;;;;;4981952;28;20129;-68
2022/06/27 01:40:15;;;;;;;10.43;6.43;;;17.40;99.90;;;;;;5000562;28;20184;-69
2022/06/27 01:42:42;;;;;;;8.68;5.78;;;17.40;99.90;;;;;;5018154;28;20034;-69
2022/06/27 01:45:08;;;;;;;9.05;6.60;;;17.40;99.90;;;;;;5001579;28;20049;-69
2022/06/27 01:47:34;;;;;;;12.05;7.53;;;17.40;99.90;;;;;;5001076;28;20097;-69
2022/06/27 01:50:00;;;;;;;8.73;6.03;;;17.40;99.90;;;;;;5001606;28;20078;-69
2022/06/27 01:52:27;;;;;;;9.13;6.72;;;17.40;99.90;;;;;;5001220;28;20088;-69
2022/06/27 01:54:54;;;;;;;9.05;6.00;;;17.40;99.90;;;;;;5001100;28;20447;-69
2022/06/27 01:57:22;;;;;;;8.85;6.75;;;17.40;99.90;;;;;;5017726;28;20049;-68
2022/06/27 01:59:52;;;;;;;8.30;5.45;;;17.40;99.90;;;;;;5001096;28;20057;-68
2022/06/27 02:02:19;;;;;;;8.55;6.60;;;17.40;99.90;;;;;;5010193;28;20053;-69
2022/06/27 02:04:44;;;;;;;9.40;6.43;;;17.40;99.90;;;;;;5001214;28;20352;-69
2022/06/27 02:07:11;;;;;;;13.30;6.72;;;17.40;99.90;;;;;;5018005;28;20056;-69
2022/06/27 02:09:37;;;;;;;9.82;6.35;;;17.40;99.90;;;;;;5000559;28;20124;-69
2022/06/27 02:12:18;;;;;;;7.97;5.22;;;17.30;99.90;;;;;;4999882;28;20087;-69
2022/06/27 02:14:49;;;;;;;12.05;6.50;;;17.30;99.90;;;;;;5016722;28;20054;-69
2022/06/27 02:17:16;;;;;;;12.85;6.78;;;17.30;99.90;;;;;;5017769;28;20040;-69
2022/06/27 02:19:41;;;;;;;9.98;6.65;;;17.30;99.90;;;;;;5017908;28;20088;-69
2022/06/27 02:22:09;;;;;;;10.13;6.65;;;17.30;99.90;;;;;;5016827;28;20085;-69
2022/06/27 02:24:34;;;;;;;10.63;7.00;;;17.30;99.90;;;;;;5016879;28;20104;-68
2022/06/27 02:27:00;;;;;;;12.77;7.38;;;17.20;99.90;;;;;;5016547;28;20081;-70
2022/06/27 02:29:26;;;;;;;9.43;5.93;;;17.20;99.90;;;;;;5004797;28;20328;-69
2022/06/27 02:31:51;;;;;;;9.48;6.88;;;17.20;99.90;;;;;;5000635;28;20463;-69
2022/06/27 02:34:17;;;;;;;9.75;6.72;;;17.20;99.90;;;;;;5017695;28;20107;-68
2022/06/27 02:36:46;;;;;;;10.85;6.47;;;17.20;99.90;;;;;;5017700;28;20137;-69
2022/06/27 02:39:16;;;;;;;12.68;7.40;;;17.20;99.90;;;;;;5017663;28;20046;-69
2022/06/27 02:41:44;;;;;;;10.75;7.47;;;17.10;99.90;;;;;;4999465;28;20528;-68
2022/06/27 02:44:12;;;;;;;12.02;7.18;;;17.20;99.90;;;;;;5000267;28;20053;-68
2022/06/27 02:46:39;;;;;;;14.10;7.47;;;17.20;99.90;;;;;;5000702;28;20370;-69
2022/06/27 02:49:05;;;;;;;11.70;7.75;;;17.10;99.90;;;;;;5000507;28;20050;-68
2022/06/27 02:51:55;;;;;;;11.75;7.90;;;17.20;99.90;;;;;;4999583;28;20042;-68
2022/06/27 02:54:30;;;;;;;12.43;7.25;;;17.10;99.90;;;;;;4999276;28;20505;-68
2022/06/27 02:57:20;;;;;;;12.57;7.93;;;17.10;99.90;;;;;;4999315;28;20184;-68
2022/06/27 02:59:48;;;;;;;10.95;7.68;;;17.10;99.90;;;;;;4998753;28;20062;-68
2022/06/27 03:02:16;;;;;;;14.75;8.43;;;17.00;99.90;;;;;;5016998;28;20046;-69
2022/06/27 03:04:42;;;;;;;15.40;8.60;;;17.00;99.90;;;;;;4999436;28;20042;-68
2022/06/27 03:07:07;;;;;;;16.77;8.95;;;17.00;99.90;;;;;;4999358;28;20383;-68
2022/06/27 03:09:33;;;;;;;11.90;8.23;;;16.90;99.90;;;;;;4999470;28;20077;-69
2022/06/27 03:11:59;;;;;;;11.00;7.78;;;16.80;99.90;;;;;;5016220;28;20126;-69
2022/06/27 03:14:24;;;;;;;12.95;8.52;;;16.90;99.90;;;;;;5016833;28;20042;-68
2022/06/27 03:16:50;;;;;;;10.70;7.78;;;16.90;99.90;;;;;;5016851;28;20057;-68
2022/06/27 03:19:16;;;;;;;12.88;9.02;;;16.80;99.90;;;;;;4999354;28;20450;-68
2022/06/27 03:21:41;;;;;;;15.40;7.82;;;16.80;99.90;;;;;;5000031;28;20045;-69
2022/06/27 03:24:07;;;;;;;15.48;8.50;;;16.80;99.90;;;;;;4999408;28;20049;-68
2022/06/27 03:26:33;;;;;;;15.20;8.30;;;16.80;99.90;;;;;;4999292;28;20124;-69
2022/06/27 03:28:59;;;;;;;13.48;8.40;;;16.80;99.90;;;;;;4999249;28;20058;-68
2022/06/27 03:31:25;;;;;;;12.95;7.57;;;16.80;99.90;;;;;;4999781;28;20443;-68
2022/06/27 03:33:50;;;;;;;13.90;8.88;;;16.80;99.90;;;;;;4999028;28;20041;-69
2022/06/27 03:36:16;;;;;;;13.18;7.68;;;16.80;99.90;;;;;;4999642;28;20137;-68
2022/06/27 03:38:42;;;;;;;14.38;8.07;;;16.80;99.90;;;;;;4999110;28;20468;-69
2022/06/27 03:41:07;;;;;;;11.70;6.88;;;16.70;99.90;;;;;;5015322;28;20038;-68
2022/06/27 03:43:33;;;;;;;13.30;6.70;;;16.80;99.90;;;;;;4998516;28;20041;-68
2022/06/27 03:45:58;;;;;;;9.20;6.15;;;16.70;99.90;;;;;;4999001;28;20107;-69
2022/06/27 03:51:08;;;;;;;10.45;6.13;;;16.60;99.90;;;;;;4999027;28;20615;-68
2022/06/27 03:53:34;;;;;;;7.63;5.50;;;16.70;99.90;;;;;;4998941;28;20049;-69
2022/06/27 03:55:59;;;;;;;8.45;5.85;;;16.70;99.90;;;;;;4998120;28;20046;-68
2022/06/27 03:58:25;;;;;;;6.97;5.35;;;16.70;99.90;;;;;;4998575;28;20046;-70
2022/06/27 04:00:50;;;;;;;7.32;5.10;;;16.70;99.90;;;;;;4998219;28;20054;-69
2022/06/27 04:03:16;;;;;;;8.65;5.32;;;16.70;99.90;;;;;;4997346;28;20045;-69
2022/06/27 04:05:42;;;;;;;7.18;5.05;;;16.70;99.90;;;;;;4999216;28;20045;-69
2022/06/27 04:08:08;;;;;;;6.18;4.63;;;16.70;99.90;;;;;;4999105;28;20053;-69
2022/06/27 04:10:34;;;;;;;8.93;5.55;;;16.70;99.90;;;;;;4998562;28;20112;-68
2022/06/27 04:12:59;;;;;;;9.30;4.88;;;16.70;99.90;;;;;;4998626;28;20088;-69
2022/06/27 04:15:25;;;;;;;7.70;4.82;;;16.70;99.90;;;;;;4997934;28;20042;-70
2022/06/27 04:17:51;;;;;;;6.93;4.53;;;16.70;99.90;;;;;;4998417;28;20045;-69
2022/06/27 04:20:16;;;;;;;7.85;4.97;;;16.70;99.90;;;;;;4998577;28;20049;-69
2022/06/27 04:22:42;;;;;;;8.68;4.60;;;16.70;99.90;;;;;;4998425;28;20112;-69
2022/06/27 04:25:08;;;;;;;6.53;4.22;;;16.70;99.90;;;;;;5015024;28;20069;-69
2022/06/27 04:27:33;;;;;;;7.20;4.05;;;16.70;99.90;;;;;;4998688;28;20068;-68
2022/06/27 04:29:59;;;;;;;5.72;3.80;;;16.60;99.90;;;;;;4998369;28;20096;-69
2022/06/27 04:32:25;;;;;;;5.60;3.90;;;16.70;99.90;;;;;;4998221;28;20053;-69
2022/06/27 04:34:51;;;;;;;5.70;3.70;;;16.60;99.90;;;;;;5015068;28;20072;-69
2022/06/27 04:37:18;;;;;;;5.13;3.53;;;16.60;99.90;;;;;;5016418;28;20465;-68
2022/06/27 04:39:44;;;;;;;6.63;3.67;;;16.50;99.90;;;;;;4995087;28;20110;-68
2022/06/27 04:42:10;;;;;;;4.95;2.95;;;16.50;99.90;;;;;;4997239;28;20038;-69
2022/06/27 04:44:38;;;;;;;4.32;2.90;;;16.50;99.90;;;;;;4997522;28;20065;-69
2022/06/27 04:47:07;;;;;;;3.95;2.75;;;16.50;99.90;;;;;;4998016;28;20049;-68
2022/06/27 04:49:33;;;;;;;4.68;3.20;;;16.50;99.90;;;;;;4978365;28;20050;-69
2022/06/27 04:51:59;;;;;;;4.95;3.20;;;16.50;99.90;;;;;;4978799;28;20069;-69
2022/06/27 04:54:26;;;;;;;5.95;2.75;;;16.40;99.90;;;;;;4978921;28;20050;-68
2022/06/27 04:56:55;;;;;;;4.47;2.75;;;16.40;99.90;;;;;;4978301;28;20134;-68
2022/06/27 04:59:22;;;;;;;3.92;2.63;;;16.30;99.90;;;;;;5001674;28;20088;-69
2022/06/27 05:01:50;;;;;;;4.70;2.60;;;16.40;99.90;;;;;;4995301;28;20410;-69
2022/06/27 05:04:19;;;;;;;4.03;2.58;;;16.30;99.90;;;;;;5012046;28;20061;-69
2022/06/27 05:06:46;;;;;;;4.13;2.53;;;16.30;99.90;;;;;;4997882;28;20050;-69
2022/06/27 05:09:12;;;;;;;5.70;2.58;;;16.30;99.90;;;;;;4997370;28;20084;-69
2022/06/27 05:11:37;;;;;;;5.53;2.70;;;16.40;99.90;;;;;;4997831;28;20053;-69
2022/06/27 05:14:03;;;;;;;3.83;2.20;;;16.30;99.90;;;;;;4998889;28;20054;-68
2022/06/27 05:16:29;;;;;;;4.70;2.97;;;16.40;99.90;;;;;;4985899;28;20050;-68
2022/06/27 05:18:54;;;;;;;3.47;2.40;;;16.40;99.90;;;;;;5001203;28;20042;-68
2022/06/27 05:21:20;;;;;;;2.80;1.85;;;16.40;99.90;;;;;;5002140;28;20119;-68
2022/06/27 05:23:46;;;;;;;5.10;1.98;;;16.50;99.90;;;;;;5001563;28;20053;-68
2022/06/27 05:26:11;;;;;;;3.67;2.28;;;16.40;99.90;;;;;;5001493;28;20054;-68
2022/06/27 05:28:37;;;;;;;4.15;2.10;;;16.60;99.90;;;;;;5000808;28;20049;-69
2022/06/27 05:31:04;;;;;;;5.13;1.88;;;16.60;99.90;;;;;;5017806;28;20077;-68
2022/06/27 05:33:30;;;;;;;4.25;2.30;;;16.60;99.90;;;;;;5001364;28;20362;-69
2022/06/27 05:35:56;;;;;;;5.53;2.35;;;16.60;99.90;;;;;;5002258;28;20038;-68
2022/06/27 05:38:23;;;;;;;4.15;2.05;;;16.60;99.90;;;;;;5018462;28;20034;-68
2022/06/27 05:40:49;;;;;;;3.00;2.10;;;16.70;99.90;;;;;;5001108;28;20099;-69
2022/06/27 05:43:15;;;;;;;3.20;1.80;;;16.80;99.90;;;;;;5001046;28;20049;-69
2022/06/27 05:45:40;;;;;;;3.25;1.85;;;16.90;99.90;;;;;;5018125;28;20046;-69
2022/06/27 05:48:07;;;;;;;5.03;2.40;;;17.00;99.90;;;;;;5001280;28;20068;-69
2022/06/27 05:50:33;;;;;;;3.90;2.03;;;17.00;99.90;;;;;;4997707;28;20046;-68
2022/06/27 05:53:01;;;;;;;3.15;2.00;;;17.20;99.90;;;;;;5017327;28;20061;-68
2022/06/27 05:55:28;;;;;;;4.18;2.03;;;17.30;99.90;;;;;;5000247;28;20116;-69
2022/06/27 05:57:57;;;;;;;3.38;1.90;;;17.40;99.90;;;;;;5005667;28;20133;-70
2022/06/27 06:00:24;;;;;;;5.35;2.20;;;17.60;99.90;;;;;;5003535;28;20046;-69
2022/06/27 06:02:51;;;;;;;4.13;2.50;;;17.80;99.90;;;;;;5000155;28;20050;-69
2022/06/27 06:05:17;;;;;;;4.03;1.80;;;17.90;99.90;;;;;;5017166;28;20356;-69
2022/06/27 06:07:43;;;;;;;8.35;1.90;;;18.00;99.90;;;;;;5017503;28;20124;-71
2022/06/27 06:10:09;;;;;;;3.17;1.98;;;18.10;99.90;;;;;;5019653;28;20517;-70
2022/06/27 06:12:35;;;;;;;3.20;1.70;;;18.10;99.90;;;;;;5016366;28;20049;-70
2022/06/27 06:15:02;;;;;;;3.55;1.70;;;18.10;99.90;;;;;;5004923;28;20046;-70
2022/06/27 06:17:29;;;;;;;4.88;1.85;;;18.10;99.90;;;;;;5017761;28;20362;-69
2022/06/27 06:19:55;;;;;;;3.40;1.73;;;18.10;99.90;;;;;;4999657;28;20069;-70
2022/06/27 06:22:20;;;;;;;3.40;2.05;;;18.10;99.90;;;;;;5000564;28;20049;-69
2022/06/27 06:24:47;;;;;;;3.60;1.92;;;18.10;99.90;;;;;;4999207;28;20046;-69
2022/06/27 06:27:13;;;;;;;4.75;1.70;;;18.00;99.90;;;;;;5016525;28;20053;-69
2022/06/27 06:29:42;;;;;;;3.65;2.20;;;18.10;99.90;;;;;;5016890;28;20046;-69
2022/06/27 06:32:08;;;;;;;3.35;1.63;;;18.10;99.90;;;;;;5017010;28;20116;-70
2022/06/27 06:34:34;;;;;;;2.53;1.60;;;18.00;99.90;;;;;;4998955;28;20121;-69
2022/06/27 06:37:00;;;;;;;3.65;1.67;;;18.00;99.90;;;;;;4998528;28;20187;-70
2022/06/27 06:39:25;;;;;;;3.80;1.88;;;18.00;99.90;;;;;;4999705;28;20579;-70
2022/06/27 06:41:52;;;;;;;4.28;1.83;;;18.00;99.90;;;;;;4996104;28;20046;-70
2022/06/27 06:44:18;;;;;;;3.35;1.90;;;17.90;99.90;;;;;;5016573;28;20061;-70
2022/06/27 06:46:44;;;;;;;4.68;2.03;;;17.80;99.90;;;;;;5014240;28;20041;-69
2022/06/27 06:49:10;;;;;;;2.90;1.70;;;17.80;99.90;;;;;;5003116;28;20053;-69
2022/06/27 06:51:39;;;;;;;3.33;1.92;;;17.80;99.90;;;;;;5016864;28;20060;-69
2022/06/27 06:54:06;;;;;;;2.65;1.83;;;17.80;99.90;;;;;;5020056;28;20095;-69
2022/06/27 06:56:33;;;;;;;4.15;2.17;;;17.80;99.90;;;;;;5024000;28;20141;-69
2022/06/27 06:59:00;;;;;;;6.68;1.98;;;17.80;99.90;;;;;;5015185;28;20461;-70
2022/06/27 07:01:27;;;;;;;3.90;2.17;;;17.80;99.90;;;;;;4997813;28;20042;-69
2022/06/27 07:03:55;;;;;;;3.35;2.00;;;17.80;99.90;;;;;;4999231;28;20049;-69
2022/06/27 07:06:26;;;;;;;3.60;2.10;;;17.90;99.90;;;;;;5016434;28;20042;-69
2022/06/27 07:08:53;;;;;;;3.20;2.03;;;17.90;99.90;;;;;;5016722;28;20042;-69
2022/06/27 07:11:21;;;;;;;3.50;1.85;;;18.00;99.90;;;;;;4998069;28;20042;-72
2022/06/27 07:13:48;;;;;;;4.57;2.13;;;18.00;99.90;;;;;;5015529;28;20037;-73
2022/06/27 07:16:14;;;;;;;3.30;1.95;;;18.10;99.90;;;;;;4995805;28;20369;-73
2022/06/27 07:18:40;;;;;;;2.90;1.70;;;18.10;99.90;;;;;;5018187;28;20103;-72
2022/06/27 07:21:06;;;;;;;3.90;2.17;;;18.20;99.90;;;;;;5015779;28;20049;-72
2022/06/27 07:23:33;;;;;;;3.72;1.85;;;18.20;99.90;;;;;;4998519;28;20056;-73
2022/06/27 07:25:59;;;;;;;4.07;2.08;;;18.10;99.90;;;;;;4997584;28;20111;-72
2022/06/27 07:28:28;;;;;;;10.13;2.33;;;18.20;99.90;;;;;;4998403;28;20133;-72
2022/06/27 07:30:55;;;;;;;5.65;2.00;;;18.10;99.90;;;;;;4996323;28;20049;-73
2022/06/27 07:33:21;;;;;;;3.03;1.85;;;18.10;99.90;;;;;;4997733;28;20060;-71
2022/06/27 07:35:47;;;;;;;3.28;2.05;;;18.10;99.90;;;;;;4998251;28;20434;-72
2022/06/27 07:38:13;;;;;;;2.83;1.80;;;18.00;99.90;;;;;;4997861;28;20046;-72
2022/06/27 07:40:39;;;;;;;5.15;2.08;;;18.10;99.90;;;;;;4998168;28;20038;-70
2022/06/27 07:43:05;;;;;;;3.55;2.05;;;18.00;99.90;;;;;;4998149;28;20455;-71
2022/06/27 07:45:32;;;;;;;4.85;2.20;;;18.10;99.90;;;;;;4997508;28;20192;-70
2022/06/27 07:47:57;;;;;;;2.80;1.83;;;17.90;99.90;;;;;;4998653;28;20046;-70
2022/06/27 07:50:40;;;;;;;3.53;1.92;;;17.80;99.90;;;;;;5014518;28;20057;-69
2022/06/27 07:53:11;;;;;;;4.10;2.10;;;17.90;99.90;;;;;;4998319;28;20161;-70
2022/06/27 07:55:41;;;;;;;2.95;1.88;;;18.00;99.90;;;;;;4998031;28;20053;-73
2022/06/27 07:58:09;;;;;;;5.65;2.10;;;18.00;99.90;;;;;;5014909;28;20049;-71
2022/06/27 08:00:35;;;;;;;6.53;2.13;;;18.00;99.90;;;;;;4995498;28;20163;-70
2022/06/27 08:03:36;;;;;;;6.63;2.47;;;17.90;99.90;;;;;;4997940;28;20061;-70
2022/06/27 08:05:47;;;;;;;4.38;2.35;;;18.00;99.90;;;;;;4998047;28;20433;-69
2022/06/27 08:08:12;;;;;;;5.03;2.20;;;18.00;99.90;;;;;;4998306;28;20049;-69
2022/06/27 08:10:38;;;;;;;4.43;2.28;;;18.00;99.90;;;;;;4997977;28;20053;-69
2022/06/27 08:13:03;;;;;;;3.25;2.03;;;18.00;99.90;;;;;;4997656;28;20505;-71
2022/06/27 08:15:29;;;;;;;5.20;2.08;;;18.10;99.90;;;;;;4998034;28;20132;-71
2022/06/27 08:17:57;;;;;;;3.67;2.17;;;18.10;99.90;;;;;;4998006;28;20052;-70
2022/06/27 08:20:23;;;;;;;3.03;1.80;;;18.20;99.90;;;;;;4997801;28;20083;-68
2022/06/27 08:22:51;;;;;;;3.05;1.90;;;18.20;99.90;;;;;;4996834;28;20509;-70
2022/06/27 08:25:17;;;;;;;2.80;1.92;;;18.20;99.90;;;;;;4997443;28;20132;-69
2022/06/27 08:27:45;;;;;;;5.05;2.25;;;18.20;99.90;;;;;;5015217;28;20061;-68
2022/06/27 08:30:14;;;;;;;5.38;2.00;;;18.30;99.90;;;;;;4993116;28;20046;-69
2022/06/27 08:32:40;;;;;;;6.68;2.30;;;18.30;99.90;;;;;;5013696;28;20497;-69
2022/06/27 08:35:07;;;;;;;7.13;2.90;;;18.40;99.90;;;;;;5022165;28;20117;-69
2022/06/27 08:37:33;;;;;;;4.07;2.38;;;18.40;99.90;;;;;;5022297;28;20374;-69
2022/06/27 08:39:59;;;;;;;5.45;2.60;;;18.50;99.90;;;;;;5028989;28;20362;-69
2022/06/27 08:42:25;;;;;;;4.00;2.60;;;18.60;99.90;;;;;;5001236;28;20041;-69
2022/06/27 08:44:50;;;;;;;5.68;2.70;;;18.80;99.90;;;;;;5013039;28;20402;-70
2022/06/27 08:47:16;;;;;;;3.97;2.53;;;18.90;99.90;;;;;;5014575;28;20054;-69
2022/06/27 08:49:46;;;;;;;6.03;2.78;;;19.00;99.90;;;;;;4997209;28;20385;-69
2022/06/27 08:52:12;;;;;;;3.67;2.20;;;19.10;99.90;;;;;;5014448;28;20053;-69
2022/06/27 08:54:40;;;;;;;4.85;2.65;;;19.20;99.90;;;;;;4997077;28;20057;-70
2022/06/27 08:57:08;;;;;;;3.53;2.42;;;19.10;99.90;;;;;;4997645;28;20135;-69
2022/06/27 08:59:34;;;;;;;3.85;2.40;;;19.20;99.90;;;;;;4997046;28;20049;-68
2022/06/27 09:02:00;;;;;;;5.50;2.63;;;19.30;99.90;;;;;;5009650;28;20054;-67
2022/06/27 09:04:26;;;;;;;3.90;2.70;;;19.30;99.90;;;;;;4984483;28;20459;-68
2022/06/27 09:06:55;;;;;;;5.30;2.70;;;19.30;99.90;;;;;;5007624;28;20084;-69
2022/06/27 09:09:24;;;;;;;4.47;2.35;;;19.40;99.90;;;;;;4990033;28;20050;-69
2022/06/27 09:11:50;;;;;;;3.50;2.30;;;19.40;99.90;;;;;;4986921;28;20074;-69
2022/06/27 09:14:43;;;;;;;6.10;2.45;;;19.30;99.90;;;;;;5013790;28;20445;-69
2022/06/27 09:17:15;;;;;;;4.10;2.22;;;19.30;99.90;;;;;;5014774;28;20042;-70
2022/06/27 09:19:56;;;;;;;4.80;2.60;;;19.40;99.90;;;;;;5014388;28;20054;-69
2022/06/27 09:22:28;;;;;;;2.88;1.88;;;19.60;99.90;;;;;;4997340;28;20433;-69
2022/06/27 09:25:09;;;;;;;3.00;1.80;;;19.60;99.90;;;;;;4997381;28;20054;-69
2022/06/27 09:27:38;;;;;;;3.78;2.42;;;19.70;99.90;;;;;;5014209;28;20061;-68
2022/06/27 09:30:22;;;;;;;6.53;2.42;;;19.70;99.90;;;;;;4996482;28;20045;-69
2022/06/27 09:32:50;;;;;;;5.38;2.08;;;19.70;99.90;;;;;;5011919;28;20042;-70
2022/06/27 09:35:31;;;;;;;4.20;2.35;;;19.70;99.90;;;;;;5014339;28;20060;-69
2022/06/27 09:38:03;;;;;;;4.30;2.03;;;19.60;99.90;;;;;;5014658;28;20061;-69
2022/06/27 09:40:32;;;;;;;4.43;2.33;;;19.60;99.90;;;;;;4997406;28;20057;-69
2022/06/27 09:42:59;;;;;;;4.82;2.13;;;19.50;99.90;;;;;;5014458;28;20050;-68
2022/06/27 09:45:27;;;;;;;3.97;2.10;;;19.40;99.90;;;;;;5014287;28;20041;-68
2022/06/27 09:48:05;;;;;;;3.10;2.08;;;19.30;99.90;;;;;;4996816;28;20046;-69
2022/06/27 09:50:34;;;;;;;4.10;2.45;;;19.20;99.90;;;;;;4981596;28;20513;-68
2022/06/27 09:53:00;;;;;;;4.18;2.20;;;19.20;99.90;;;;;;4961686;28;20046;-70
2022/06/27 09:55:27;;;;;;;3.90;1.88;;;19.30;99.90;;;;;;4990698;28;20082;-70
2022/06/27 09:57:53;;;;;;;3.90;2.15;;;19.40;99.90;;;;;;4958003;28;20051;-70
2022/06/27 10:00:20;;;;;;;5.05;2.80;;;19.40;99.90;;;;;;4987357;28;20472;-70
2022/06/27 10:02:47;;;;;;;5.43;2.33;;;19.50;99.90;;;;;;4981328;28;20478;-70
2022/06/27 10:05:18;;;;;;;3.67;2.35;;;19.60;99.90;;;;;;4979546;28;20042;-70
2022/06/27 10:08:00;;;;;;;4.40;2.15;;;19.70;99.90;;;;;;4981146;28;20057;-70
2022/06/27 10:10:30;;;;;;;4.43;2.47;;;19.80;99.90;;;;;;4997782;28;20462;-70
2022/06/27 10:12:58;;;;;;;4.70;2.30;;;19.70;99.90;;;;;;4980866;28;20466;-71
2022/06/27 10:15:36;;;;;;;4.45;2.67;;;19.80;99.90;;;;;;4980482;28;20062;-69
2022/06/27 10:18:02;;;;;;;3.92;2.38;;;19.70;99.90;;;;;;4980634;28;20050;-70
2022/06/27 10:20:38;;;;;;;4.13;2.13;;;19.80;99.90;;;;;;4979627;28;20050;-70
2022/06/27 10:23:03;;;;;;;4.13;2.20;;;20.00;99.90;;;;;;4993151;28;20065;-70
2022/06/27 10:25:29;;;;;;;3.88;2.00;;;20.10;99.90;;;;;;4969484;28;20038;-71
2022/06/27 10:28:10;;;;;;;4.18;2.17;;;20.30;99.90;;;;;;4965488;28;20054;-70
2022/06/27 10:30:44;;;;;;;4.30;2.20;;;20.50;99.90;;;;;;4969707;28;20077;-69
2022/06/27 10:33:28;;;;;;;4.45;2.20;;;20.70;99.90;;;;;;4997367;28;20050;-70
2022/06/27 10:35:57;;;;;;;4.70;1.88;;;20.70;99.90;;;;;;4997709;28;20050;-69
2022/06/27 10:38:24;;;;;;;4.07;2.42;;;20.70;99.90;;;;;;4964115;28;20065;-70
2022/06/27 10:40:50;;;;;;;2.55;1.50;;;20.70;99.90;;;;;;4980385;28;20085;-69
2022/06/27 10:43:42;;;;;;;3.65;1.98;;;20.60;99.90;;;;;;4979746;28;20057;-70
2022/06/27 10:46:10;;;;;;;2.70;1.40;;;20.80;99.90;;;;;;4982003;28;20114;-69
2022/06/27 10:48:38;;;;;;;3.72;2.08;;;21.00;99.90;;;;;;4996657;28;20038;-68
2022/06/27 10:51:26;;;;;;;3.60;1.50;;;21.10;99.90;;;;;;4994242;28;20126;-69
2022/06/27 10:54:05;;;;;;;2.90;1.60;;;21.40;99.90;;;;;;5016889;28;20136;-69
2022/06/27 10:56:31;;;;;;;3.88;1.65;;;21.40;99.90;;;;;;4999211;28;20058;-69
2022/06/27 10:58:58;;;;;;;2.95;1.50;;;21.50;99.90;;;;;;4997941;28;20072;-70
2022/06/27 11:01:24;;;;;;;2.60;1.50;;;21.50;99.90;;;;;;4998876;28;20050;-73
2022/06/27 11:03:50;;;;;;;2.88;1.40;;;21.60;99.90;;;;;;5016379;28;20377;-70
2022/06/27 11:06:16;;;;;;;2.45;1.50;;;21.70;99.90;;;;;;4997887;28;20104;-70
2022/06/27 11:08:48;;;;;;;4.65;1.75;;;22.00;99.90;;;;;;4994482;28;20085;-69
2022/06/27 11:11:25;;;;;;;2.77;1.43;;;22.00;99.90;;;;;;4995312;28;20050;-70
2022/06/27 11:13:54;;;;;;;2.45;1.30;;;22.20;99.90;;;;;;5005357;28;20038;-69
2022/06/27 11:16:23;;;;;;;1.85;1.05;;;22.30;99.90;;;;;;4998694;28;20445;-69
2022/06/27 11:19:00;;;;;;;1.85;1.20;;;22.30;99.90;;;;;;5015940;28;20058;-69
2022/06/27 11:21:36;;;;;;;2.17;0.98;;;22.30;99.90;;;;;;4998518;28;20056;-69
2022/06/27 11:24:04;;;;;;;4.75;1.20;;;22.20;99.90;;;;;;4998511;28;20076;-69
2022/06/27 11:26:33;;;;;;;2.17;1.20;;;22.20;99.90;;;;;;4997849;28;20060;-69
2022/06/27 11:32:08;;;;;;;1.50;0.98;;;22.20;99.90;;;;;;4995648;28;20386;-69
2022/06/27 11:34:38;;;;;;;6.22;1.40;;;22.20;99.90;;;;;;4977651;28;20376;-69
2022/06/27 11:37:12;;;;;;;3.08;1.38;;;22.20;99.90;;;;;;4995590;28;20054;-69
2022/06/27 11:39:38;;;;;;;1.63;1.00;;;22.20;99.90;;;;;;4995712;28;20062;-69
2022/06/27 11:42:10;;;;;;;1.75;1.10;;;22.10;99.90;;;;;;4986160;28;20513;-69
2022/06/27 11:44:37;;;;;;;2.13;1.30;;;22.00;99.90;;;;;;5015681;28;20034;-70
2022/06/27 11:47:07;;;;;;;2.22;1.33;;;21.80;99.90;;;;;;5015593;28;20049;-69
2022/06/27 11:49:38;;;;;;;3.05;1.60;;;21.60;99.90;;;;;;4997621;28;20042;-69
2022/06/27 11:52:12;;;;;;;3.22;1.38;;;21.50;99.90;;;;;;4997848;28;20145;-70
2022/06/27 11:54:46;;;;;;;2.92;1.50;;;21.50;99.90;;;;;;4997857;28;20065;-69
2022/06/27 11:57:23;;;;;;;2.67;1.50;;;21.50;99.90;;;;;;5014485;28;20053;-69
2022/06/27 11:59:50;;;;;;;2.38;1.48;;;21.40;99.90;;;;;;4997149;28;20046;-70
2022/06/27 12:02:37;;;;;;;2.85;1.52;;;21.10;99.90;;;;;;5015144;28;20104;-70
2022/06/27 12:05:03;;;;;;;2.25;1.10;;;21.00;99.90;;;;;;5015157;28;20458;-69
2022/06/27 12:07:28;;;;;;;2.10;1.20;;;20.80;99.90;;;;;;4998126;28;20068;-69
2022/06/27 12:09:54;;;;;;;2.58;1.35;;;20.80;99.90;;;;;;4997852;28;20425;-70
2022/06/27 12:12:22;;;;;;;4.22;1.92;;;20.80;99.90;;;;;;5007639;28;20077;-71
2022/06/27 12:14:50;;;;;;;2.95;1.42;;;20.70;99.90;;;;;;4999356;28;20493;-70
2022/06/27 12:17:17;;;;;;;2.45;1.52;;;20.80;99.90;;;;;;5019610;28;20045;-70
2022/06/27 12:19:43;;;;;;;3.17;1.95;;;20.80;99.90;;;;;;4997807;28;20097;-71
2022/06/27 12:22:12;;;;;;;3.13;1.80;;;20.90;99.90;;;;;;5014523;28;20080;-69
2022/06/27 12:24:38;;;;;;;3.50;1.95;;;21.00;99.90;;;;;;5013923;28;20220;-67
2022/06/27 12:27:04;;;;;;;4.80;1.98;;;21.00;99.90;;;;;;5012074;28;20037;-68
2022/06/27 12:29:31;;;;;;;3.42;1.88;;;21.10;99.90;;;;;;5014620;28;20469;-68
2022/06/27 12:31:56;;;;;;;3.63;1.88;;;21.30;99.90;;;;;;5014523;28;20049;-70
2022/06/27 12:34:22;;;;;;;2.90;1.88;;;21.40;99.90;;;;;;4996840;28;20046;-69
2022/06/27 12:36:48;;;;;;;3.95;1.77;;;21.50;99.90;;;;;;4997254;28;20060;-69
2022/06/27 12:39:13;;;;;;;2.78;1.60;;;21.50;99.90;;;;;;4997057;28;20041;-68
2022/06/27 12:41:39;;;;;;;2.55;1.52;;;21.50;99.90;;;;;;4996690;28;20474;-69
2022/06/27 12:44:05;;;;;;;3.33;1.50;;;21.50;99.90;;;;;;4996779;28;20049;-68
2022/06/27 12:46:31;;;;;;;3.88;1.77;;;21.50;99.90;;;;;;5014438;28;20117;-69
2022/06/27 12:48:57;;;;;;;3.20;1.70;;;21.50;99.90;;;;;;4997070;28;20157;-68
2022/06/27 12:51:24;;;;;;;2.78;1.63;;;21.50;99.90;;;;;;4996513;28;20058;-69
2022/06/27 12:53:50;;;;;;;3.00;1.88;;;21.50;99.90;;;;;;4996236;28;20054;-69